createdAt,value
2017-08-31T00:01:58.131Z,77.20
2017-08-31T00:04:59.484Z,77.10
2017-08-31T00:08:01.057Z,76.70
2017-08-31T00:11:02.397Z,76.40
2017-08-31T00:14:03.745Z,76.50
2017-08-31T00:17:05.065Z,76.30
2017-08-31T00:20:06.425Z,76.40
2017-08-31T00:23:07.729Z,76.00
2017-08-31T00:26:09.076Z,76.50
2017-08-31T00:29:10.447Z,76.40
2017-08-31T00:32:12.618Z,76.40
2017-08-31T00:35:14.087Z,76.00
2017-08-31T00:38:15.469Z,76.00
2017-08-31T00:41:16.853Z,75.60
2017-08-31T00:44:18.226Z,75.60
2017-08-31T00:47:19.697Z,75.20
2017-08-31T00:50:21.057Z,74.80
2017-08-31T00:53:22.461Z,75.40
2017-08-31T00:56:23.899Z,75.30
2017-08-31T00:59:25.281Z,75.80
2017-08-31T01:02:26.658Z,75.30
2017-08-31T01:05:28.062Z,75.10
2017-08-31T01:08:29.441Z,76.00
2017-08-31T01:11:30.854Z,76.30
2017-08-31T01:14:32.176Z,76.60
2017-08-31T01:17:33.707Z,76.30
2017-08-31T01:20:35.072Z,76.00
2017-08-31T01:23:36.459Z,76.00
2017-08-31T01:26:37.800Z,76.00
2017-08-31T01:29:39.214Z,76.40
2017-08-31T01:32:40.573Z,76.60
2017-08-31T01:35:41.962Z,76.50
2017-08-31T01:38:43.687Z,76.10
2017-08-31T01:41:45.061Z,76.40
2017-08-31T01:44:46.481Z,76.60
2017-08-31T01:47:47.845Z,77.10
2017-08-31T01:50:49.215Z,77.50
2017-08-31T01:53:50.557Z,78.70
2017-08-31T01:56:51.955Z,77.90
2017-08-31T01:59:53.283Z,77.60
2017-08-31T02:02:54.661Z,78.20
2017-08-31T02:05:56.034Z,78.40
2017-08-31T02:08:57.357Z,78.40
2017-08-31T02:11:58.698Z,78.20
2017-08-31T02:15:00.013Z,77.80
2017-08-31T02:18:01.368Z,77.50
2017-08-31T02:21:02.698Z,77.80
2017-08-31T02:24:04.074Z,77.60
2017-08-31T02:27:05.823Z,77.70
2017-08-31T02:30:07.173Z,77.80
2017-08-31T02:33:08.573Z,77.60
2017-08-31T02:36:09.958Z,77.40
2017-08-31T02:39:11.338Z,76.80
2017-08-31T02:42:12.676Z,76.60
2017-08-31T02:45:14.033Z,77.10
2017-08-31T02:48:15.382Z,77.00
2017-08-31T02:51:16.746Z,78.00
2017-08-31T02:54:18.083Z,76.90
2017-08-31T02:57:19.439Z,76.40
2017-08-31T03:00:20.805Z,77.50
2017-08-31T03:03:22.150Z,77.20
2017-08-31T03:06:23.509Z,77.50
2017-08-31T03:09:24.798Z,77.70
2017-08-31T03:12:26.176Z,78.50
2017-08-31T03:15:27.380Z,77.70
2017-08-31T03:18:28.757Z,77.40
2017-08-31T03:21:30.315Z,76.80
2017-08-31T03:24:31.638Z,76.20
2017-08-31T03:27:32.994Z,76.30
2017-08-31T03:30:34.341Z,75.90
2017-08-31T03:33:35.667Z,75.70
2017-08-31T03:36:36.961Z,75.70
2017-08-31T03:39:38.306Z,75.80
2017-08-31T03:42:39.637Z,75.00
2017-08-31T03:45:40.982Z,75.00
2017-08-31T03:48:42.335Z,75.90
2017-08-31T03:51:43.642Z,75.30
2017-08-31T03:54:45.411Z,75.80
2017-08-31T03:57:47.192Z,75.20
2017-08-31T04:00:48.551Z,74.50
2017-08-31T04:03:50.605Z,74.70
2017-08-31T04:06:51.992Z,74.60
2017-08-31T04:09:53.441Z,75.10
2017-08-31T04:12:54.759Z,75.70
2017-08-31T04:15:56.102Z,74.10
2017-08-31T04:18:57.423Z,75.00
2017-08-31T04:21:58.777Z,74.50
2017-08-31T04:25:00.113Z,74.80
2017-08-31T04:28:02.192Z,74.30
2017-08-31T04:31:03.558Z,74.20
2017-08-31T04:34:04.886Z,75.00
2017-08-31T04:37:06.209Z,74.90
2017-08-31T04:40:07.534Z,75.00
2017-08-31T04:43:08.902Z,74.20
2017-08-31T04:46:10.226Z,73.80
2017-08-31T04:49:11.582Z,74.30
2017-08-31T04:52:12.896Z,74.60
2017-08-31T04:55:14.261Z,75.10
2017-08-31T04:58:15.890Z,74.40
2017-08-31T05:01:17.258Z,74.70
2017-08-31T05:04:18.648Z,74.50
2017-08-31T05:07:20.055Z,74.50
2017-08-31T05:10:21.413Z,74.10
2017-08-31T05:13:22.733Z,75.60
2017-08-31T05:16:24.088Z,74.40
2017-08-31T05:19:25.563Z,75.90
2017-08-31T05:22:26.971Z,75.20
2017-08-31T05:25:28.374Z,75.30
2017-08-31T05:28:29.717Z,76.10
2017-08-31T05:31:31.092Z,76.30
2017-08-31T05:34:39.330Z,75.70
2017-08-31T05:37:40.698Z,76.20
2017-08-31T05:40:42.462Z,75.80
2017-08-31T05:43:43.829Z,75.80
2017-08-31T05:46:45.220Z,75.60
2017-08-31T05:49:46.560Z,76.10
2017-08-31T05:52:47.917Z,76.40
2017-08-31T05:55:49.279Z,75.60
2017-08-31T05:58:50.658Z,75.90
2017-08-31T06:01:52.049Z,76.10
2017-08-31T06:04:53.397Z,75.60
2017-08-31T06:07:54.774Z,75.60
2017-08-31T06:10:56.131Z,74.80
2017-08-31T06:13:57.491Z,74.90
2017-08-31T06:16:58.822Z,75.40
2017-08-31T06:20:00.163Z,75.10
2017-08-31T06:23:01.884Z,75.00
2017-08-31T06:26:03.191Z,75.70
2017-08-31T06:29:04.538Z,75.10
2017-08-31T06:32:05.852Z,75.30
2017-08-31T06:35:07.239Z,75.20
2017-08-31T06:38:08.581Z,74.50
2017-08-31T06:41:09.966Z,75.10
2017-08-31T06:44:11.333Z,75.70
2017-08-31T06:47:12.653Z,75.30
2017-08-31T06:50:14.023Z,74.00
2017-08-31T06:53:15.315Z,75.40
2017-08-31T06:56:16.668Z,75.00
2017-08-31T06:59:17.999Z,75.90
2017-08-31T07:02:19.381Z,76.20
2017-08-31T07:05:21.190Z,75.50
2017-08-31T07:08:22.489Z,74.60
2017-08-31T07:11:23.802Z,75.30
2017-08-31T07:14:25.118Z,75.30
2017-08-31T07:17:26.467Z,74.80
2017-08-31T07:20:27.750Z,75.20
2017-08-31T07:23:29.097Z,75.50
2017-08-31T07:26:30.425Z,75.20
2017-08-31T07:29:31.793Z,75.60
2017-08-31T07:32:33.166Z,75.40
2017-08-31T07:35:34.469Z,75.50
2017-08-31T07:38:35.832Z,75.50
2017-08-31T07:41:37.166Z,76.00
2017-08-31T07:44:38.514Z,75.30
2017-08-31T07:47:39.829Z,76.00
2017-08-31T07:50:41.200Z,75.70
2017-08-31T07:53:42.532Z,76.20
2017-08-31T07:56:43.868Z,75.30
2017-08-31T07:59:45.171Z,74.80
2017-08-31T08:02:53.512Z,75.20
2017-08-31T08:05:54.883Z,75.20
2017-08-31T08:08:56.226Z,75.10
2017-08-31T08:11:57.535Z,75.00
2017-08-31T08:14:58.883Z,76.50
2017-08-31T08:18:00.206Z,75.90
2017-08-31T08:21:01.534Z,76.50
2017-08-31T08:24:02.886Z,76.80
2017-08-31T08:27:04.187Z,75.70
2017-08-31T08:30:05.545Z,76.30
2017-08-31T08:33:06.858Z,76.20
2017-08-31T08:36:08.204Z,75.80
2017-08-31T08:39:09.667Z,75.70
2017-08-31T08:42:10.970Z,76.10
2017-08-31T08:45:12.333Z,76.50
2017-08-31T08:48:13.649Z,75.80
2017-08-31T08:51:15.024Z,76.80
2017-08-31T08:54:16.344Z,76.20
2017-08-31T08:57:24.633Z,76.80
2017-08-31T09:00:26.122Z,76.60
2017-08-31T09:03:27.446Z,76.00
2017-08-31T09:06:28.842Z,77.50
2017-08-31T09:09:30.151Z,77.50
2017-08-31T09:12:31.538Z,76.30
2017-08-31T09:15:32.850Z,76.10
2017-08-31T09:18:34.210Z,78.10
2017-08-31T09:21:35.697Z,78.00
2017-08-31T09:24:37.015Z,77.00
2017-08-31T09:27:38.333Z,76.30
2017-08-31T09:30:39.677Z,77.50
2017-08-31T09:33:41.059Z,78.00
2017-08-31T09:36:42.369Z,78.50
2017-08-31T09:39:43.725Z,78.20
2017-08-31T09:42:45.174Z,77.20
2017-08-31T09:45:46.482Z,76.90
2017-08-31T09:48:47.840Z,76.70
2017-08-31T09:51:49.179Z,77.00
2017-08-31T09:54:50.561Z,77.20
2017-08-31T09:57:51.860Z,76.30
2017-08-31T10:00:53.225Z,76.50
2017-08-31T10:03:54.677Z,76.30
2017-08-31T10:06:56.015Z,77.00
2017-08-31T10:09:57.352Z,77.40
2017-08-31T10:12:58.674Z,78.70
2017-08-31T10:16:00.073Z,77.70
2017-08-31T10:19:01.367Z,77.80
2017-08-31T10:22:02.695Z,75.60
2017-08-31T10:25:04.201Z,76.70
2017-08-31T10:28:05.573Z,76.10
2017-08-31T10:31:06.941Z,76.30
2017-08-31T10:34:08.289Z,76.00
2017-08-31T10:37:09.645Z,76.90
2017-08-31T10:40:10.998Z,76.60
2017-08-31T10:43:12.397Z,76.50
2017-08-31T10:46:13.741Z,76.70
2017-08-31T10:49:15.086Z,76.80
2017-08-31T10:52:16.461Z,76.90
2017-08-31T10:55:17.810Z,76.40
2017-08-31T10:58:19.194Z,76.40
2017-08-31T11:01:20.550Z,74.20
2017-08-31T11:04:21.900Z,75.20
2017-08-31T11:07:23.664Z,76.40
2017-08-31T11:10:25.010Z,74.70
2017-08-31T11:13:26.432Z,75.80
2017-08-31T11:16:27.801Z,75.40
2017-08-31T11:19:29.163Z,75.80
2017-08-31T11:22:30.487Z,76.00
2017-08-31T11:25:31.873Z,74.60
2017-08-31T11:28:33.343Z,74.90
2017-08-31T11:31:34.637Z,74.20
2017-08-31T11:34:36.013Z,74.70
2017-08-31T11:37:37.254Z,75.60
2017-08-31T11:40:38.578Z,75.20
2017-08-31T11:43:39.880Z,76.30
2017-08-31T11:46:41.207Z,75.40
2017-08-31T11:49:42.522Z,74.30
2017-08-31T11:52:43.854Z,74.30
2017-08-31T11:55:45.185Z,74.80
2017-08-31T11:58:46.473Z,75.60
2017-08-31T12:01:47.829Z,75.70
2017-08-31T12:04:49.297Z,73.80
2017-08-31T12:07:50.638Z,74.70
2017-08-31T12:10:52.025Z,74.60
2017-08-31T12:13:53.359Z,74.50
2017-08-31T12:16:54.715Z,73.00
2017-08-31T12:19:56.035Z,75.20
2017-08-31T12:22:57.386Z,73.80
2017-08-31T12:25:58.725Z,73.20
2017-08-31T12:29:00.080Z,73.50
2017-08-31T12:32:01.362Z,76.30
2017-08-31T12:35:02.721Z,73.80
2017-08-31T12:38:04.267Z,72.00
2017-08-31T12:41:05.581Z,72.60
2017-08-31T12:44:06.914Z,74.10
2017-08-31T12:47:08.216Z,71.10
2017-08-31T12:50:09.544Z,72.10
2017-08-31T12:53:10.860Z,72.80
2017-08-31T12:56:12.219Z,68.40
2017-08-31T12:59:13.519Z,67.70
2017-08-31T13:02:14.855Z,70.30
2017-08-31T13:05:16.171Z,70.20
2017-08-31T13:08:17.545Z,69.10
2017-08-31T13:11:18.869Z,70.50
2017-08-31T13:14:20.173Z,70.60
2017-08-31T13:17:21.514Z,69.70
2017-08-31T13:20:22.820Z,69.40
2017-08-31T13:23:24.181Z,70.80
2017-08-31T13:26:25.507Z,68.90
2017-08-31T13:29:27.606Z,70.40
2017-08-31T13:32:29.278Z,70.30
2017-08-31T13:35:31.375Z,71.80
2017-08-31T13:38:32.709Z,70.90
2017-08-31T13:41:34.041Z,72.00
2017-08-31T13:44:35.393Z,72.80
2017-08-31T13:47:36.726Z,70.20
2017-08-31T13:50:38.055Z,69.10
2017-08-31T13:53:39.655Z,69.50
2017-08-31T13:56:40.985Z,67.50
2017-08-31T13:59:42.341Z,68.40
2017-08-31T14:02:43.685Z,69.90
2017-08-31T14:05:45.018Z,66.60
2017-08-31T14:08:46.362Z,64.70
2017-08-31T14:11:47.720Z,66.90
2017-08-31T14:14:49.052Z,65.10
2017-08-31T14:17:50.401Z,63.00
2017-08-31T14:20:51.770Z,63.60
2017-08-31T14:23:53.077Z,64.80
2017-08-31T14:26:54.683Z,65.30
2017-08-31T14:29:56.013Z,65.30
2017-08-31T14:32:57.381Z,66.80
2017-08-31T14:35:58.979Z,67.60
2017-08-31T14:39:00.286Z,65.00
2017-08-31T14:42:01.631Z,66.80
2017-08-31T14:45:03.014Z,66.50
2017-08-31T14:48:04.359Z,68.60
2017-08-31T14:51:05.649Z,69.60
2017-08-31T14:54:07.014Z,64.70
2017-08-31T14:57:08.353Z,64.50
2017-08-31T15:00:09.780Z,66.00
2017-08-31T15:03:12.670Z,67.50
2017-08-31T15:06:13.978Z,66.60
2017-08-31T15:09:15.345Z,65.90
2017-08-31T15:12:16.646Z,66.10
2017-08-31T15:15:18.030Z,62.90
2017-08-31T15:18:19.367Z,64.00
2017-08-31T15:21:20.696Z,65.30
2017-08-31T15:24:22.034Z,64.50
2017-08-31T15:27:23.393Z,62.40
2017-08-31T15:30:24.770Z,63.20
2017-08-31T15:33:26.317Z,58.40
2017-08-31T15:36:27.699Z,58.80
2017-08-31T15:39:29.191Z,58.40
2017-08-31T15:42:30.593Z,60.40
2017-08-31T15:45:32.177Z,57.30
2017-08-31T15:48:33.885Z,56.00
2017-08-31T15:51:36.214Z,60.10
2017-08-31T15:54:37.788Z,58.40
2017-08-31T15:57:39.929Z,59.20
2017-08-31T16:00:41.241Z,59.20
2017-08-31T16:03:42.683Z,58.20
2017-08-31T16:06:44.020Z,59.00
2017-08-31T16:09:45.810Z,59.80
2017-08-31T16:12:47.143Z,56.50
2017-08-31T16:15:48.486Z,60.00
2017-08-31T16:18:49.895Z,60.30
2017-08-31T16:21:51.234Z,59.70
2017-08-31T16:24:52.602Z,59.80
2017-08-31T16:27:53.947Z,60.60
2017-08-31T16:30:55.297Z,60.00
2017-08-31T16:33:56.618Z,57.50
2017-08-31T16:36:59.851Z,60.80
2017-08-31T16:40:01.183Z,58.40
2017-08-31T16:43:02.631Z,56.70
2017-08-31T16:46:04.195Z,56.80
2017-08-31T16:49:05.516Z,57.80
2017-08-31T16:52:07.047Z,62.40
2017-08-31T16:55:08.357Z,59.40
2017-08-31T16:58:09.729Z,58.00
2017-08-31T17:01:18.047Z,57.10
2017-08-31T17:04:19.410Z,58.30
2017-08-31T17:07:20.725Z,55.30
2017-08-31T17:10:22.477Z,56.60
2017-08-31T17:13:23.823Z,57.90
2017-08-31T17:16:25.150Z,58.50
2017-08-31T17:19:26.487Z,58.70
2017-08-31T17:22:27.839Z,59.60
2017-08-31T17:25:29.173Z,61.30
2017-08-31T17:28:30.480Z,60.00
2017-08-31T17:31:31.838Z,61.20
2017-08-31T17:34:33.185Z,62.90
2017-08-31T17:37:34.549Z,63.80
2017-08-31T17:40:36.326Z,63.90
2017-08-31T17:43:37.728Z,65.00
2017-08-31T17:46:39.214Z,65.60
2017-08-31T17:49:40.525Z,65.50
2017-08-31T17:52:41.866Z,66.80
2017-08-31T17:55:43.274Z,66.80
2017-08-31T17:58:44.685Z,67.10
2017-08-31T18:01:46.018Z,66.80
2017-08-31T18:04:47.370Z,64.50
2017-08-31T18:07:48.744Z,67.00
2017-08-31T18:10:50.152Z,67.10
2017-08-31T18:13:51.484Z,68.00
2017-08-31T18:16:52.769Z,68.50
2017-08-31T18:19:54.077Z,66.70
2017-08-31T18:22:55.526Z,66.60
2017-08-31T18:25:57.593Z,67.10
2017-08-31T18:28:58.961Z,66.10
2017-08-31T18:32:00.277Z,66.10
2017-08-31T18:35:01.799Z,66.00
2017-08-31T18:38:04.476Z,66.40
2017-08-31T18:41:06.388Z,66.40
2017-08-31T18:44:07.844Z,65.80
2017-08-31T18:47:09.566Z,66.30
2017-08-31T18:50:11.388Z,66.00
2017-08-31T18:53:13.217Z,66.00
2017-08-31T18:56:14.600Z,66.60
2017-08-31T18:59:15.901Z,66.00
2017-08-31T19:02:18.747Z,66.10
2017-08-31T19:05:21.021Z,66.10
2017-08-31T19:08:24.644Z,66.20
2017-08-31T19:11:26.419Z,66.10
2017-08-31T19:14:29.465Z,66.10
2017-08-31T19:17:30.766Z,67.10
2017-08-31T19:20:33.386Z,66.10
2017-08-31T19:23:36.673Z,66.00
2017-08-31T19:26:37.958Z,66.00
2017-08-31T19:29:39.352Z,65.90
2017-08-31T19:32:41.177Z,65.90
2017-08-31T19:35:43.474Z,65.80
2017-08-31T19:38:45.561Z,65.80
2017-08-31T19:41:48.030Z,65.60
2017-08-31T19:44:49.721Z,65.40
2017-08-31T19:47:51.861Z,65.90
2017-08-31T19:50:53.185Z,65.80
2017-08-31T19:53:54.994Z,65.70
2017-08-31T19:56:56.393Z,65.70
2017-08-31T19:59:57.693Z,65.70
2017-08-31T20:03:00.093Z,66.00
2017-08-31T20:06:01.449Z,66.00
2017-08-31T20:09:03.017Z,66.40
2017-08-31T20:12:05.630Z,66.40
2017-08-31T20:15:06.962Z,66.40
2017-08-31T20:18:08.289Z,66.00
2017-08-31T20:21:09.601Z,65.70
2017-08-31T20:24:11.019Z,65.90
2017-08-31T20:27:13.293Z,66.10
2017-08-31T20:30:14.640Z,65.90
2017-08-31T20:33:16.104Z,65.60
2017-08-31T20:36:17.437Z,66.30
2017-08-31T20:39:18.793Z,66.50
2017-08-31T20:42:20.120Z,66.10
2017-08-31T20:45:21.488Z,66.00
2017-08-31T20:48:22.832Z,65.90
2017-08-31T20:51:31.140Z,65.80
2017-08-31T20:54:32.477Z,65.60
2017-08-31T20:57:33.757Z,65.60
2017-08-31T21:00:35.525Z,66.00
2017-08-31T21:03:36.976Z,66.40
2017-08-31T21:06:38.306Z,66.50
2017-08-31T21:09:39.649Z,66.50
2017-08-31T21:12:40.950Z,66.10
2017-08-31T21:15:42.320Z,66.00
2017-08-31T21:18:50.496Z,65.90
2017-08-31T21:21:51.795Z,66.40
2017-08-31T21:24:53.142Z,66.40
2017-08-31T21:27:54.447Z,66.70
2017-08-31T21:30:55.773Z,66.70
2017-08-31T21:33:57.116Z,66.40
2017-08-31T21:36:58.473Z,66.80
2017-08-31T21:40:00.137Z,67.00
2017-08-31T21:43:01.457Z,67.10
2017-08-31T21:46:02.828Z,66.90
2017-08-31T21:49:04.137Z,66.90
2017-08-31T21:52:05.481Z,66.70
2017-08-31T21:55:06.790Z,66.70
2017-08-31T21:58:08.161Z,66.80
2017-08-31T22:01:09.477Z,67.50
2017-08-31T22:04:10.825Z,67.20
2017-08-31T22:07:12.163Z,67.20
2017-08-31T22:10:13.505Z,67.20
2017-08-31T22:13:14.805Z,67.10
2017-08-31T22:16:16.122Z,67.10
2017-08-31T22:19:17.425Z,67.30
2017-08-31T22:22:18.784Z,67.10
2017-08-31T22:25:20.113Z,68.30
2017-08-31T22:28:21.418Z,68.20
2017-08-31T22:31:22.743Z,68.00
2017-08-31T22:34:24.081Z,69.10
2017-08-31T22:37:25.433Z,68.30
2017-08-31T22:40:26.794Z,68.40
2017-08-31T22:43:28.176Z,68.30
2017-08-31T22:46:29.469Z,68.50
2017-08-31T22:49:30.828Z,68.70
2017-08-31T22:52:32.161Z,69.20
2017-08-31T22:55:34.865Z,69.60
2017-08-31T22:58:42.253Z,69.20
2017-08-31T23:01:43.565Z,69.00
2017-08-31T23:04:44.900Z,68.90
2017-08-31T23:07:46.182Z,68.90
2017-08-31T23:10:47.573Z,68.90
2017-08-31T23:13:55.890Z,69.20
2017-08-31T23:16:57.236Z,69.10
2017-08-31T23:19:58.680Z,69.70
2017-08-31T23:23:00.025Z,69.80
2017-08-31T23:26:01.414Z,70.50
2017-08-31T23:29:02.701Z,71.10
2017-08-31T23:32:04.052Z,70.40
2017-08-31T23:35:05.370Z,71.10
2017-08-31T23:38:06.713Z,70.50
2017-08-31T23:41:08.053Z,70.10
2017-08-31T23:44:09.408Z,70.40
2017-08-31T23:47:10.769Z,69.80
2017-08-31T23:50:12.041Z,69.40
2017-08-31T23:53:13.370Z,70.20
2017-08-31T23:56:14.708Z,70.50
2017-08-31T23:59:16.042Z,70.20
